Bovina, Colorado
Current Conditions -  °F | °C
As of 4:55 PM on Wednesday 28 Jan 2015 (Local Time) from KLIC Reporting Station
Clear Clear  
Wind Chill: 43°   Ceiling: Unl
Heat Index: 49°   Visibility: 10mi
Dew Point: 27°   Wind: 16mph
Humidity: 43%   Direction: 350°N
Pressure: 30.11"   Gusts: NA
Location:  39.4374°N, 103.393°W
Report Text: KLIC 282355Z AUTO 35014KT 10SM CLR 09/M03 A3011 RMK AO2 PK WND 01032/2300 SLP184 T00941028 10150 20094 53023
Loading
Personal Weather Stations






























Interactive Weather Map New forecast layout! Learn more

10-Day Weather Forecast

Advertisements
Track Severe Weather on mobile